sensor_id;sensor_type;location;lat;lon;timestamp;P1;durP1;ratioP1;P2;durP2;ratioP2
75171;SDS011;63750;52.418;20.742;2023-05-23T00:00:31;15.00;;;12.60;;
75171;SDS011;63750;52.418;20.742;2023-05-23T00:02:58;14.40;;;13.00;;
75171;SDS011;63750;52.418;20.742;2023-05-23T00:05:25;13.80;;;12.50;;
75171;SDS011;63750;52.418;20.742;2023-05-23T00:07:52;15.10;;;13.60;;
75171;SDS011;63750;52.418;20.742;2023-05-23T00:10:19;14.20;;;12.70;;
75171;SDS011;63750;52.418;20.742;2023-05-23T00:12:47;14.10;;;12.80;;
75171;SDS011;63750;52.418;20.742;2023-05-23T00:15:14;13.60;;;12.20;;
75171;SDS011;63750;52.418;20.742;2023-05-23T00:17:41;13.90;;;10.30;;
75171;SDS011;63750;52.418;20.742;2023-05-23T00:20:09;14.40;;;13.10;;
75171;SDS011;63750;52.418;20.742;2023-05-23T00:22:36;15.80;;;14.30;;
75171;SDS011;63750;52.418;20.742;2023-05-23T00:25:04;15.80;;;14.30;;
75171;SDS011;63750;52.418;20.742;2023-05-23T00:27:32;15.60;;;14.10;;
75171;SDS011;63750;52.418;20.742;2023-05-23T00:29:59;16.20;;;14.60;;
75171;SDS011;63750;52.418;20.742;2023-05-23T00:32:27;17.60;;;15.80;;
75171;SDS011;63750;52.418;20.742;2023-05-23T00:34:54;14.70;;;13.20;;
75171;SDS011;63750;52.418;20.742;2023-05-23T00:37:21;15.70;;;14.30;;
75171;SDS011;63750;52.418;20.742;2023-05-23T00:39:48;16.30;;;14.70;;
75171;SDS011;63750;52.418;20.742;2023-05-23T00:42:15;14.90;;;13.30;;
75171;SDS011;63750;52.418;20.742;2023-05-23T00:44:42;16.70;;;15.30;;
75171;SDS011;63750;52.418;20.742;2023-05-23T00:47:09;17.20;;;15.60;;
75171;SDS011;63750;52.418;20.742;2023-05-23T00:49:36;16.50;;;15.00;;
75171;SDS011;63750;52.418;20.742;2023-05-23T00:52:03;16.50;;;14.90;;
75171;SDS011;63750;52.418;20.742;2023-05-23T00:54:31;14.70;;;13.30;;
75171;SDS011;63750;52.418;20.742;2023-05-23T00:56:59;13.30;;;12.10;;
75171;SDS011;63750;52.418;20.742;2023-05-23T00:59:26;13.50;;;12.20;;
75171;SDS011;63750;52.418;20.742;2023-05-23T01:01:54;14.30;;;13.00;;
75171;SDS011;63750;52.418;20.742;2023-05-23T01:04:23;12.30;;;11.10;;
75171;SDS011;63750;52.418;20.742;2023-05-23T01:06:50;14.60;;;13.20;;
75171;SDS011;63750;52.418;20.742;2023-05-23T01:09:18;16.00;;;14.50;;
75171;SDS011;63750;52.418;20.742;2023-05-23T01:11:48;13.70;;;12.40;;
75171;SDS011;63750;52.418;20.742;2023-05-23T01:14:25;15.50;;;14.10;;
75171;SDS011;63750;52.418;20.742;2023-05-23T01:16:59;16.30;;;14.60;;
75171;SDS011;63750;52.418;20.742;2023-05-23T01:19:44;16.90;;;15.50;;
75171;SDS011;63750;52.418;20.742;2023-05-23T01:22:21;17.40;;;15.80;;
75171;SDS011;63750;52.418;20.742;2023-05-23T01:25:00;16.40;;;14.70;;
75171;SDS011;63750;52.418;20.742;2023-05-23T01:27:44;15.80;;;14.20;;
75171;SDS011;63750;52.418;20.742;2023-05-23T01:30:16;14.80;;;13.30;;
75171;SDS011;63750;52.418;20.742;2023-05-23T01:32:46;13.90;;;12.60;;
75171;SDS011;63750;52.418;20.742;2023-05-23T01:35:16;16.10;;;14.60;;
75171;SDS011;63750;52.418;20.742;2023-05-23T01:37:49;14.00;;;12.70;;
75171;SDS011;63750;52.418;20.742;2023-05-23T01:40:17;15.70;;;14.20;;
75171;SDS011;63750;52.418;20.742;2023-05-23T01:42:44;14.10;;;12.90;;
75171;SDS011;63750;52.418;20.742;2023-05-23T01:45:12;17.20;;;15.40;;
75171;SDS011;63750;52.418;20.742;2023-05-23T01:47:40;14.90;;;13.60;;
75171;SDS011;63750;52.418;20.742;2023-05-23T01:50:09;15.30;;;13.90;;
75171;SDS011;63750;52.418;20.742;2023-05-23T01:52:37;14.50;;;13.10;;
75171;SDS011;63750;52.418;20.742;2023-05-23T01:55:04;16.20;;;14.70;;
75171;SDS011;63750;52.418;20.742;2023-05-23T01:57:34;16.60;;;15.10;;
75171;SDS011;63750;52.418;20.742;2023-05-23T02:00:02;15.90;;;14.40;;
75171;SDS011;63750;52.418;20.742;2023-05-23T02:02:30;15.80;;;14.30;;
75171;SDS011;63750;52.418;20.742;2023-05-23T02:04:57;17.50;;;15.70;;
75171;SDS011;63750;52.418;20.742;2023-05-23T02:07:24;15.00;;;13.60;;
75171;SDS011;63750;52.418;20.742;2023-05-23T02:09:51;16.20;;;14.50;;
75171;SDS011;63750;52.418;20.742;2023-05-23T02:12:19;13.10;;;11.70;;
75171;SDS011;63750;52.418;20.742;2023-05-23T02:14:46;14.90;;;13.60;;
75171;SDS011;63750;52.418;20.742;2023-05-23T02:17:14;15.30;;;13.80;;
75171;SDS011;63750;52.418;20.742;2023-05-23T02:19:41;16.70;;;14.90;;
75171;SDS011;63750;52.418;20.742;2023-05-23T02:22:08;16.60;;;15.00;;
75171;SDS011;63750;52.418;20.742;2023-05-23T02:24:35;17.40;;;15.60;;
75171;SDS011;63750;52.418;20.742;2023-05-23T02:27:02;17.40;;;15.60;;
75171;SDS011;63750;52.418;20.742;2023-05-23T02:29:29;18.90;;;16.80;;
75171;SDS011;63750;52.418;20.742;2023-05-23T02:31:56;17.40;;;15.70;;
75171;SDS011;63750;52.418;20.742;2023-05-23T02:34:24;14.40;;;13.10;;
75171;SDS011;63750;52.418;20.742;2023-05-23T02:36:51;15.90;;;14.40;;
75171;SDS011;63750;52.418;20.742;2023-05-23T02:39:17;16.80;;;15.30;;
75171;SDS011;63750;52.418;20.742;2023-05-23T02:41:44;17.60;;;15.80;;
75171;SDS011;63750;52.418;20.742;2023-05-23T02:44:11;17.40;;;15.20;;
75171;SDS011;63750;52.418;20.742;2023-05-23T02:46:38;14.10;;;12.70;;
75171;SDS011;63750;52.418;20.742;2023-05-23T02:49:05;17.60;;;15.90;;
75171;SDS011;63750;52.418;20.742;2023-05-23T02:51:32;17.60;;;15.80;;
75171;SDS011;63750;52.418;20.742;2023-05-23T02:54:00;19.60;;;17.80;;
75171;SDS011;63750;52.418;20.742;2023-05-23T02:56:27;18.60;;;16.70;;
75171;SDS011;63750;52.418;20.742;2023-05-23T02:58:54;14.90;;;13.40;;
75171;SDS011;63750;52.418;20.742;2023-05-23T03:01:21;14.30;;;12.90;;
75171;SDS011;63750;52.418;20.742;2023-05-23T03:03:48;15.40;;;13.90;;
75171;SDS011;63750;52.418;20.742;2023-05-23T03:06:15;17.20;;;15.50;;
75171;SDS011;63750;52.418;20.742;2023-05-23T03:08:42;13.30;;;12.00;;
75171;SDS011;63750;52.418;20.742;2023-05-23T03:11:09;15.30;;;13.80;;
75171;SDS011;63750;52.418;20.742;2023-05-23T03:13:36;13.90;;;12.50;;
75171;SDS011;63750;52.418;20.742;2023-05-23T03:16:03;13.30;;;12.00;;
75171;SDS011;63750;52.418;20.742;2023-05-23T03:18:31;13.30;;;12.00;;
75171;SDS011;63750;52.418;20.742;2023-05-23T03:20:58;15.00;;;13.40;;
75171;SDS011;63750;52.418;20.742;2023-05-23T03:23:25;16.30;;;14.60;;
75171;SDS011;63750;52.418;20.742;2023-05-23T03:25:52;17.40;;;15.60;;
75171;SDS011;63750;52.418;20.742;2023-05-23T03:28:19;19.00;;;17.10;;
75171;SDS011;63750;52.418;20.742;2023-05-23T03:30:48;16.60;;;15.00;;
75171;SDS011;63750;52.418;20.742;2023-05-23T03:33:15;16.60;;;15.10;;
75171;SDS011;63750;52.418;20.742;2023-05-23T03:35:42;15.70;;;14.20;;
75171;SDS011;63750;52.418;20.742;2023-05-23T03:38:09;16.80;;;15.20;;
75171;SDS011;63750;52.418;20.742;2023-05-23T03:40:36;18.30;;;16.50;;
75171;SDS011;63750;52.418;20.742;2023-05-23T03:43:03;16.20;;;14.60;;
75171;SDS011;63750;52.418;20.742;2023-05-23T03:45:31;14.90;;;13.50;;
75171;SDS011;63750;52.418;20.742;2023-05-23T03:47:58;16.40;;;14.80;;
75171;SDS011;63750;52.418;20.742;2023-05-23T03:50:26;13.40;;;12.10;;
75171;SDS011;63750;52.418;20.742;2023-05-23T03:52:53;13.90;;;12.50;;
75171;SDS011;63750;52.418;20.742;2023-05-23T03:55:20;14.70;;;13.30;;
75171;SDS011;63750;52.418;20.742;2023-05-23T03:57:47;14.50;;;13.10;;
75171;SDS011;63750;52.418;20.742;2023-05-23T04:00:14;13.30;;;12.10;;
75171;SDS011;63750;52.418;20.742;2023-05-23T04:02:42;12.80;;;11.60;;
75171;SDS011;63750;52.418;20.742;2023-05-23T04:05:10;13.20;;;11.90;;
75171;SDS011;63750;52.418;20.742;2023-05-23T04:07:37;14.90;;;13.40;;
75171;SDS011;63750;52.418;20.742;2023-05-23T04:10:05;14.60;;;13.10;;
75171;SDS011;63750;52.418;20.742;2023-05-23T04:12:33;12.60;;;11.30;;
75171;SDS011;63750;52.418;20.742;2023-05-23T04:15:00;14.40;;;13.00;;
75171;SDS011;63750;52.418;20.742;2023-05-23T04:17:28;15.00;;;13.60;;
75171;SDS011;63750;52.418;20.742;2023-05-23T04:19:55;13.90;;;12.10;;
75171;SDS011;63750;52.418;20.742;2023-05-23T04:22:22;12.90;;;11.80;;
75171;SDS011;63750;52.418;20.742;2023-05-23T04:24:49;15.60;;;14.10;;
75171;SDS011;63750;52.418;20.742;2023-05-23T04:27:16;14.50;;;13.10;;
75171;SDS011;63750;52.418;20.742;2023-05-23T04:29:43;15.10;;;13.70;;
75171;SDS011;63750;52.418;20.742;2023-05-23T04:32:10;12.10;;;11.00;;
75171;SDS011;63750;52.418;20.742;2023-05-23T04:34:37;15.50;;;14.00;;
75171;SDS011;63750;52.418;20.742;2023-05-23T04:37:04;16.10;;;14.00;;
75171;SDS011;63750;52.418;20.742;2023-05-23T04:39:31;14.90;;;13.50;;
75171;SDS011;63750;52.418;20.742;2023-05-23T04:41:58;15.90;;;14.40;;
75171;SDS011;63750;52.418;20.742;2023-05-23T04:44:25;15.80;;;14.40;;
75171;SDS011;63750;52.418;20.742;2023-05-23T04:46:52;16.10;;;14.50;;
75171;SDS011;63750;52.418;20.742;2023-05-23T04:49:19;15.80;;;14.20;;
75171;SDS011;63750;52.418;20.742;2023-05-23T04:51:46;15.10;;;13.70;;
75171;SDS011;63750;52.418;20.742;2023-05-23T04:54:13;15.20;;;13.80;;
75171;SDS011;63750;52.418;20.742;2023-05-23T04:56:40;14.40;;;13.00;;
75171;SDS011;63750;52.418;20.742;2023-05-23T04:59:07;14.90;;;13.30;;
75171;SDS011;63750;52.418;20.742;2023-05-23T05:01:37;14.70;;;13.20;;
75171;SDS011;63750;52.418;20.742;2023-05-23T05:04:04;15.10;;;13.50;;
75171;SDS011;63750;52.418;20.742;2023-05-23T05:06:31;14.80;;;13.30;;
75171;SDS011;63750;52.418;20.742;2023-05-23T05:09:00;14.90;;;13.40;;
75171;SDS011;63750;52.418;20.742;2023-05-23T05:11:28;15.10;;;13.50;;
75171;SDS011;63750;52.418;20.742;2023-05-23T05:13:55;14.50;;;12.80;;
75171;SDS011;63750;52.418;20.742;2023-05-23T05:16:22;14.20;;;12.80;;
75171;SDS011;63750;52.418;20.742;2023-05-23T05:18:48;13.50;;;12.20;;
75171;SDS011;63750;52.418;20.742;2023-05-23T05:21:15;13.20;;;11.80;;
75171;SDS011;63750;52.418;20.742;2023-05-23T05:23:42;14.40;;;12.90;;
75171;SDS011;63750;52.418;20.742;2023-05-23T05:26:09;13.50;;;11.90;;
75171;SDS011;63750;52.418;20.742;2023-05-23T05:28:36;12.70;;;11.50;;
75171;SDS011;63750;52.418;20.742;2023-05-23T05:31:03;12.90;;;11.60;;
75171;SDS011;63750;52.418;20.742;2023-05-23T05:33:31;12.40;;;11.30;;
75171;SDS011;63750;52.418;20.742;2023-05-23T05:35:58;13.50;;;12.10;;
75171;SDS011;63750;52.418;20.742;2023-05-23T05:38:25;13.80;;;11.20;;
75171;SDS011;63750;52.418;20.742;2023-05-23T05:40:52;12.70;;;10.60;;
75171;SDS011;63750;52.418;20.742;2023-05-23T05:43:19;11.40;;;10.20;;
75171;SDS011;63750;52.418;20.742;2023-05-23T05:45:46;11.00;;;9.90;;
75171;SDS011;63750;52.418;20.742;2023-05-23T05:48:13;11.90;;;10.60;;
75171;SDS011;63750;52.418;20.742;2023-05-23T05:50:41;13.00;;;9.90;;
75171;SDS011;63750;52.418;20.742;2023-05-23T05:53:10;19.00;;;11.90;;
75171;SDS011;63750;52.418;20.742;2023-05-23T05:55:38;10.60;;;9.40;;
75171;SDS011;63750;52.418;20.742;2023-05-23T05:58:05;10.80;;;9.40;;
75171;SDS011;63750;52.418;20.742;2023-05-23T06:00:32;10.70;;;9.40;;
75171;SDS011;63750;52.418;20.742;2023-05-23T06:02:59;13.00;;;9.70;;
75171;SDS011;63750;52.418;20.742;2023-05-23T06:05:26;11.20;;;8.90;;
75171;SDS011;63750;52.418;20.742;2023-05-23T06:07:53;10.30;;;9.20;;
75171;SDS011;63750;52.418;20.742;2023-05-23T06:10:21;10.40;;;9.50;;
75171;SDS011;63750;52.418;20.742;2023-05-23T06:12:48;10.10;;;9.10;;
75171;SDS011;63750;52.418;20.742;2023-05-23T06:15:15;10.30;;;9.00;;
75171;SDS011;63750;52.418;20.742;2023-05-23T06:17:42;9.90;;;8.80;;
75171;SDS011;63750;52.418;20.742;2023-05-23T06:20:10;9.80;;;8.60;;
75171;SDS011;63750;52.418;20.742;2023-05-23T06:22:37;9.60;;;8.60;;
75171;SDS011;63750;52.418;20.742;2023-05-23T06:25:05;12.00;;;8.40;;
75171;SDS011;63750;52.418;20.742;2023-05-23T06:27:33;10.20;;;9.10;;
75171;SDS011;63750;52.418;20.742;2023-05-23T06:30:00;10.10;;;8.80;;
75171;SDS011;63750;52.418;20.742;2023-05-23T06:32:27;11.90;;;8.30;;
75171;SDS011;63750;52.418;20.742;2023-05-23T06:34:54;12.70;;;8.40;;
75171;SDS011;63750;52.418;20.742;2023-05-23T06:37:21;9.40;;;8.40;;
75171;SDS011;63750;52.418;20.742;2023-05-23T06:39:48;11.00;;;9.00;;
75171;SDS011;63750;52.418;20.742;2023-05-23T06:42:15;9.00;;;8.10;;
75171;SDS011;63750;52.418;20.742;2023-05-23T06:44:42;12.10;;;8.60;;
75171;SDS011;63750;52.418;20.742;2023-05-23T06:47:09;9.90;;;8.30;;
75171;SDS011;63750;52.418;20.742;2023-05-23T06:49:36;11.90;;;8.20;;
75171;SDS011;63750;52.418;20.742;2023-05-23T06:52:04;9.30;;;8.40;;
75171;SDS011;63750;52.418;20.742;2023-05-23T06:54:31;13.10;;;8.50;;
75171;SDS011;63750;52.418;20.742;2023-05-23T06:56:58;9.60;;;8.70;;
75171;SDS011;63750;52.418;20.742;2023-05-23T06:59:25;9.20;;;8.30;;
75171;SDS011;63750;52.418;20.742;2023-05-23T07:01:52;13.30;;;8.60;;
75171;SDS011;63750;52.418;20.742;2023-05-23T07:04:19;10.90;;;7.70;;
75171;SDS011;63750;52.418;20.742;2023-05-23T07:06:46;11.40;;;7.70;;
75171;SDS011;63750;52.418;20.742;2023-05-23T07:09:13;8.50;;;7.60;;
75171;SDS011;63750;52.418;20.742;2023-05-23T07:11:40;8.80;;;7.50;;
75171;SDS011;63750;52.418;20.742;2023-05-23T07:14:08;11.90;;;7.50;;
75171;SDS011;63750;52.418;20.742;2023-05-23T07:16:35;10.00;;;7.10;;
75171;SDS011;63750;52.418;20.742;2023-05-23T07:19:02;10.80;;;7.20;;
75171;SDS011;63750;52.418;20.742;2023-05-23T07:21:29;7.70;;;6.20;;
75171;SDS011;63750;52.418;20.742;2023-05-23T07:23:56;9.50;;;8.60;;
75171;SDS011;63750;52.418;20.742;2023-05-23T07:26:23;8.20;;;6.50;;
75171;SDS011;63750;52.418;20.742;2023-05-23T07:28:51;11.90;;;6.40;;
75171;SDS011;63750;52.418;20.742;2023-05-23T07:31:18;9.40;;;5.90;;
75171;SDS011;63750;52.418;20.742;2023-05-23T07:33:45;7.00;;;5.60;;
75171;SDS011;63750;52.418;20.742;2023-05-23T07:36:12;6.30;;;5.70;;
75171;SDS011;63750;52.418;20.742;2023-05-23T07:38:39;10.10;;;5.30;;
75171;SDS011;63750;52.418;20.742;2023-05-23T07:41:06;8.30;;;5.20;;
75171;SDS011;63750;52.418;20.742;2023-05-23T07:43:32;6.50;;;5.20;;
75171;SDS011;63750;52.418;20.742;2023-05-23T07:45:59;5.80;;;5.10;;
75171;SDS011;63750;52.418;20.742;2023-05-23T07:48:26;5.50;;;4.90;;
75171;SDS011;63750;52.418;20.742;2023-05-23T07:50:54;9.10;;;4.80;;
75171;SDS011;63750;52.418;20.742;2023-05-23T07:53:21;6.90;;;5.10;;
75171;SDS011;63750;52.418;20.742;2023-05-23T07:55:48;8.90;;;7.30;;
75171;SDS011;63750;52.418;20.742;2023-05-23T07:58:15;6.00;;;5.40;;
75171;SDS011;63750;52.418;20.742;2023-05-23T08:00:44;7.10;;;4.90;;
75171;SDS011;63750;52.418;20.742;2023-05-23T08:03:11;6.40;;;5.30;;
75171;SDS011;63750;52.418;20.742;2023-05-23T08:05:38;5.90;;;4.90;;
75171;SDS011;63750;52.418;20.742;2023-05-23T08:08:05;6.00;;;5.40;;
75171;SDS011;63750;52.418;20.742;2023-05-23T08:10:32;5.30;;;4.80;;
75171;SDS011;63750;52.418;20.742;2023-05-23T08:12:59;5.40;;;4.70;;
75171;SDS011;63750;52.418;20.742;2023-05-23T08:15:26;7.40;;;4.90;;
75171;SDS011;63750;52.418;20.742;2023-05-23T08:17:53;7.60;;;5.50;;
75171;SDS011;63750;52.418;20.742;2023-05-23T08:20:20;5.60;;;5.10;;
75171;SDS011;63750;52.418;20.742;2023-05-23T08:22:47;5.70;;;5.10;;
75171;SDS011;63750;52.418;20.742;2023-05-23T08:25:14;9.10;;;6.40;;
75171;SDS011;63750;52.418;20.742;2023-05-23T08:27:41;7.60;;;5.80;;
75171;SDS011;63750;52.418;20.742;2023-05-23T08:30:10;7.00;;;5.90;;
75171;SDS011;63750;52.418;20.742;2023-05-23T08:32:38;6.50;;;4.30;;
75171;SDS011;63750;52.418;20.742;2023-05-23T08:35:06;6.40;;;5.20;;
75171;SDS011;63750;52.418;20.742;2023-05-23T08:37:33;5.70;;;4.70;;
75171;SDS011;63750;52.418;20.742;2023-05-23T08:40:00;5.60;;;5.00;;
75171;SDS011;63750;52.418;20.742;2023-05-23T08:42:28;6.60;;;5.50;;
75171;SDS011;63750;52.418;20.742;2023-05-23T08:44:54;9.50;;;5.40;;
75171;SDS011;63750;52.418;20.742;2023-05-23T08:47:21;7.80;;;5.50;;
75171;SDS011;63750;52.418;20.742;2023-05-23T08:49:49;7.60;;;5.70;;
75171;SDS011;63750;52.418;20.742;2023-05-23T08:52:18;5.90;;;5.20;;
75171;SDS011;63750;52.418;20.742;2023-05-23T08:54:50;6.30;;;5.50;;
75171;SDS011;63750;52.418;20.742;2023-05-23T08:57:17;6.90;;;5.00;;
75171;SDS011;63750;52.418;20.742;2023-05-23T08:59:44;6.00;;;5.40;;
75171;SDS011;63750;52.418;20.742;2023-05-23T09:02:11;7.40;;;5.20;;
75171;SDS011;63750;52.418;20.742;2023-05-23T09:04:38;5.70;;;5.10;;
75171;SDS011;63750;52.418;20.742;2023-05-23T09:07:05;6.60;;;5.90;;
75171;SDS011;63750;52.418;20.742;2023-05-23T09:09:33;6.70;;;4.70;;
75171;SDS011;63750;52.418;20.742;2023-05-23T09:12:00;5.00;;;4.50;;
75171;SDS011;63750;52.418;20.742;2023-05-23T09:14:27;6.40;;;4.80;;
75171;SDS011;63750;52.418;20.742;2023-05-23T09:16:58;5.00;;;4.50;;
75171;SDS011;63750;52.418;20.742;2023-05-23T09:19:27;5.20;;;4.40;;
75171;SDS011;63750;52.418;20.742;2023-05-23T09:21:57;5.10;;;4.70;;
75171;SDS011;63750;52.418;20.742;2023-05-23T09:24:33;6.50;;;5.60;;
75171;SDS011;63750;52.418;20.742;2023-05-23T09:27:00;7.70;;;4.70;;
75171;SDS011;63750;52.418;20.742;2023-05-23T09:29:27;5.20;;;4.70;;
75171;SDS011;63750;52.418;20.742;2023-05-23T09:31:59;4.70;;;4.30;;
75171;SDS011;63750;52.418;20.742;2023-05-23T09:34:39;4.20;;;3.70;;
75171;SDS011;63750;52.418;20.742;2023-05-23T09:37:07;5.50;;;4.10;;
75171;SDS011;63750;52.418;20.742;2023-05-23T09:39:36;4.90;;;4.50;;
75171;SDS011;63750;52.418;20.742;2023-05-23T09:42:04;4.70;;;4.10;;
75171;SDS011;63750;52.418;20.742;2023-05-23T09:44:31;4.80;;;4.10;;
75171;SDS011;63750;52.418;20.742;2023-05-23T09:47:06;4.50;;;4.10;;
75171;SDS011;63750;52.418;20.742;2023-05-23T09:49:33;5.80;;;4.20;;
75171;SDS011;63750;52.418;20.742;2023-05-23T09:52:03;4.60;;;4.20;;
75171;SDS011;63750;52.418;20.742;2023-05-23T09:54:31;4.70;;;4.30;;
75171;SDS011;63750;52.418;20.742;2023-05-23T09:56:58;4.70;;;4.10;;
75171;SDS011;63750;52.418;20.742;2023-05-23T09:59:27;4.90;;;4.40;;
75171;SDS011;63750;52.418;20.742;2023-05-23T10:01:56;5.90;;;4.30;;
75171;SDS011;63750;52.418;20.742;2023-05-23T10:04:25;6.40;;;3.90;;
75171;SDS011;63750;52.418;20.742;2023-05-23T10:06:57;4.30;;;3.90;;
75171;SDS011;63750;52.418;20.742;2023-05-23T10:09:32;5.80;;;5.10;;
75171;SDS011;63750;52.418;20.742;2023-05-23T10:12:37;5.20;;;4.70;;
75171;SDS011;63750;52.418;20.742;2023-05-23T10:15:07;4.90;;;4.40;;
75171;SDS011;63750;52.418;20.742;2023-05-23T10:17:40;5.10;;;4.70;;
75171;SDS011;63750;52.418;20.742;2023-05-23T10:20:19;4.40;;;4.00;;
75171;SDS011;63750;52.418;20.742;2023-05-23T10:22:51;4.80;;;4.40;;
75171;SDS011;63750;52.418;20.742;2023-05-23T10:25:18;8.30;;;4.60;;
75171;SDS011;63750;52.418;20.742;2023-05-23T10:27:46;5.30;;;4.60;;
75171;SDS011;63750;52.418;20.742;2023-05-23T10:30:15;5.40;;;4.50;;
75171;SDS011;63750;52.418;20.742;2023-05-23T10:32:42;6.10;;;4.40;;
75171;SDS011;63750;52.418;20.742;2023-05-23T10:35:11;6.70;;;4.90;;
75171;SDS011;63750;52.418;20.742;2023-05-23T10:37:48;4.80;;;4.30;;
75171;SDS011;63750;52.418;20.742;2023-05-23T10:40:23;5.90;;;4.20;;
75171;SDS011;63750;52.418;20.742;2023-05-23T10:43:03;17.00;;;7.90;;
75171;SDS011;63750;52.418;20.742;2023-05-23T10:45:39;5.30;;;4.40;;
75171;SDS011;63750;52.418;20.742;2023-05-23T10:48:17;4.90;;;4.40;;
75171;SDS011;63750;52.418;20.742;2023-05-23T10:50:49;5.10;;;4.20;;
75171;SDS011;63750;52.418;20.742;2023-05-23T10:53:28;5.10;;;4.50;;
75171;SDS011;63750;52.418;20.742;2023-05-23T10:55:57;5.30;;;4.50;;
75171;SDS011;63750;52.418;20.742;2023-05-23T10:58:24;4.90;;;4.40;;
75171;SDS011;63750;52.418;20.742;2023-05-23T11:00:55;5.20;;;4.70;;
75171;SDS011;63750;52.418;20.742;2023-05-23T11:03:31;6.50;;;4.40;;
75171;SDS011;63750;52.418;20.742;2023-05-23T11:06:01;5.30;;;4.80;;
75171;SDS011;63750;52.418;20.742;2023-05-23T11:08:36;4.70;;;4.20;;
75171;SDS011;63750;52.418;20.742;2023-05-23T11:11:05;4.80;;;4.30;;
75171;SDS011;63750;52.418;20.742;2023-05-23T11:13:53;5.50;;;4.60;;
75171;SDS011;63750;52.418;20.742;2023-05-23T11:16:25;6.40;;;4.60;;
75171;SDS011;63750;52.418;20.742;2023-05-23T11:21:49;5.80;;;4.40;;
75171;SDS011;63750;52.418;20.742;2023-05-23T11:24:19;7.60;;;4.80;;
75171;SDS011;63750;52.418;20.742;2023-05-23T11:26:52;5.20;;;4.70;;
75171;SDS011;63750;52.418;20.742;2023-05-23T11:29:20;5.10;;;4.60;;
75171;SDS011;63750;52.418;20.742;2023-05-23T11:31:47;7.20;;;4.60;;
75171;SDS011;63750;52.418;20.742;2023-05-23T11:34:15;6.00;;;4.30;;
75171;SDS011;63750;52.418;20.742;2023-05-23T11:36:43;5.90;;;5.20;;
75171;SDS011;63750;52.418;20.742;2023-05-23T11:39:11;5.90;;;4.50;;
75171;SDS011;63750;52.418;20.742;2023-05-23T11:41:39;6.10;;;4.60;;
75171;SDS011;63750;52.418;20.742;2023-05-23T11:44:10;6.30;;;5.00;;
75171;SDS011;63750;52.418;20.742;2023-05-23T11:46:38;6.30;;;5.70;;
75171;SDS011;63750;52.418;20.742;2023-05-23T11:49:09;4.70;;;4.10;;
75171;SDS011;63750;52.418;20.742;2023-05-23T11:51:36;5.50;;;4.60;;
75171;SDS011;63750;52.418;20.742;2023-05-23T11:54:04;5.90;;;4.50;;
75171;SDS011;63750;52.418;20.742;2023-05-23T11:56:31;5.10;;;4.60;;
75171;SDS011;63750;52.418;20.742;2023-05-23T11:59:05;5.30;;;4.80;;
75171;SDS011;63750;52.418;20.742;2023-05-23T12:01:32;5.20;;;4.60;;
75171;SDS011;63750;52.418;20.742;2023-05-23T12:04:07;6.20;;;4.40;;
75171;SDS011;63750;52.418;20.742;2023-05-23T12:06:36;5.30;;;4.70;;
75171;SDS011;63750;52.418;20.742;2023-05-23T12:09:04;6.60;;;4.70;;
75171;SDS011;63750;52.418;20.742;2023-05-23T12:11:31;5.20;;;4.70;;
75171;SDS011;63750;52.418;20.742;2023-05-23T12:13:59;6.80;;;4.60;;
75171;SDS011;63750;52.418;20.742;2023-05-23T12:16:27;5.90;;;5.10;;
75171;SDS011;63750;52.418;20.742;2023-05-23T12:18:54;5.20;;;4.70;;
75171;SDS011;63750;52.418;20.742;2023-05-23T12:21:24;5.30;;;4.80;;
75171;SDS011;63750;52.418;20.742;2023-05-23T12:23:51;7.60;;;4.80;;
75171;SDS011;63750;52.418;20.742;2023-05-23T12:26:18;5.70;;;4.70;;
75171;SDS011;63750;52.418;20.742;2023-05-23T12:28:45;6.10;;;5.10;;
75171;SDS011;63750;52.418;20.742;2023-05-23T12:31:14;6.40;;;4.40;;
75171;SDS011;63750;52.418;20.742;2023-05-23T12:33:43;6.30;;;4.90;;
75171;SDS011;63750;52.418;20.742;2023-05-23T12:36:12;6.60;;;4.70;;
75171;SDS011;63750;52.418;20.742;2023-05-23T12:38:40;6.00;;;4.60;;
75171;SDS011;63750;52.418;20.742;2023-05-23T12:41:09;5.10;;;4.50;;
75171;SDS011;63750;52.418;20.742;2023-05-23T12:43:37;6.30;;;4.60;;
75171;SDS011;63750;52.418;20.742;2023-05-23T12:46:05;7.40;;;4.90;;
75171;SDS011;63750;52.418;20.742;2023-05-23T12:48:32;5.80;;;4.70;;
75171;SDS011;63750;52.418;20.742;2023-05-23T12:50:59;5.20;;;4.70;;
75171;SDS011;63750;52.418;20.742;2023-05-23T12:53:26;5.00;;;4.50;;
75171;SDS011;63750;52.418;20.742;2023-05-23T12:55:53;7.70;;;5.30;;
75171;SDS011;63750;52.418;20.742;2023-05-23T12:58:20;5.50;;;4.60;;
75171;SDS011;63750;52.418;20.742;2023-05-23T13:00:47;7.60;;;5.30;;
75171;SDS011;63750;52.418;20.742;2023-05-23T13:03:14;5.00;;;4.60;;
75171;SDS011;63750;52.418;20.742;2023-05-23T13:05:41;5.70;;;5.10;;
75171;SDS011;63750;52.418;20.742;2023-05-23T13:08:08;5.90;;;4.50;;
75171;SDS011;63750;52.418;20.742;2023-05-23T13:10:35;6.20;;;5.60;;
75171;SDS011;63750;52.418;20.742;2023-05-23T13:13:03;7.20;;;4.90;;
75171;SDS011;63750;52.418;20.742;2023-05-23T13:15:30;5.60;;;5.00;;
75171;SDS011;63750;52.418;20.742;2023-05-23T13:17:57;5.30;;;4.80;;
75171;SDS011;63750;52.418;20.742;2023-05-23T13:20:24;4.90;;;4.40;;
75171;SDS011;63750;52.418;20.742;2023-05-23T13:22:51;5.60;;;5.10;;
75171;SDS011;63750;52.418;20.742;2023-05-23T13:25:18;5.30;;;4.80;;
75171;SDS011;63750;52.418;20.742;2023-05-23T13:27:46;5.60;;;4.60;;
75171;SDS011;63750;52.418;20.742;2023-05-23T13:30:13;5.50;;;5.00;;
75171;SDS011;63750;52.418;20.742;2023-05-23T13:32:40;6.50;;;4.90;;
75171;SDS011;63750;52.418;20.742;2023-05-23T13:35:08;11.60;;;7.60;;
75171;SDS011;63750;52.418;20.742;2023-05-23T13:37:35;7.00;;;5.00;;
75171;SDS011;63750;52.418;20.742;2023-05-23T13:40:03;7.10;;;5.40;;
75171;SDS011;63750;52.418;20.742;2023-05-23T13:42:33;5.90;;;4.90;;
75171;SDS011;63750;52.418;20.742;2023-05-23T13:45:01;5.40;;;4.80;;
75171;SDS011;63750;52.418;20.742;2023-05-23T13:47:28;5.20;;;4.70;;
75171;SDS011;63750;52.418;20.742;2023-05-23T13:49:59;5.70;;;5.00;;
75171;SDS011;63750;52.418;20.742;2023-05-23T13:52:25;5.40;;;4.90;;
75171;SDS011;63750;52.418;20.742;2023-05-23T13:54:52;6.00;;;5.30;;
75171;SDS011;63750;52.418;20.742;2023-05-23T13:57:20;5.90;;;5.30;;
75171;SDS011;63750;52.418;20.742;2023-05-23T13:59:47;5.00;;;4.60;;
75171;SDS011;63750;52.418;20.742;2023-05-23T14:02:14;5.70;;;5.20;;
75171;SDS011;63750;52.418;20.742;2023-05-23T14:04:41;5.60;;;5.00;;
75171;SDS011;63750;52.418;20.742;2023-05-23T14:07:08;5.20;;;4.80;;
75171;SDS011;63750;52.418;20.742;2023-05-23T14:09:35;5.80;;;5.30;;
75171;SDS011;63750;52.418;20.742;2023-05-23T14:12:02;5.70;;;5.10;;
75171;SDS011;63750;52.418;20.742;2023-05-23T14:14:29;5.70;;;5.20;;
75171;SDS011;63750;52.418;20.742;2023-05-23T14:16:56;7.40;;;5.40;;
75171;SDS011;63750;52.418;20.742;2023-05-23T14:19:23;6.10;;;5.30;;
75171;SDS011;63750;52.418;20.742;2023-05-23T14:21:50;5.40;;;4.90;;
75171;SDS011;63750;52.418;20.742;2023-05-23T14:24:17;5.80;;;5.20;;
75171;SDS011;63750;52.418;20.742;2023-05-23T14:26:44;6.20;;;5.60;;
75171;SDS011;63750;52.418;20.742;2023-05-23T14:29:11;5.70;;;5.20;;
75171;SDS011;63750;52.418;20.742;2023-05-23T14:31:38;6.50;;;5.60;;